sensor_id;sensor_type;location;lat;lon;timestamp;P1;durP1;ratioP1;P2;durP2;ratioP2
21741;SDS011;11033;47.490;11.116;2023-07-31T00:01:42;11.47;;;7.20;;
21741;SDS011;11033;47.490;11.116;2023-07-31T00:04:07;7.53;;;6.10;;
21741;SDS011;11033;47.490;11.116;2023-07-31T00:06:32;8.87;;;7.03;;
21741;SDS011;11033;47.490;11.116;2023-07-31T00:08:57;6.87;;;6.20;;
21741;SDS011;11033;47.490;11.116;2023-07-31T00:11:23;7.07;;;6.40;;
21741;SDS011;11033;47.490;11.116;2023-07-31T00:13:48;8.10;;;6.87;;
21741;SDS011;11033;47.490;11.116;2023-07-31T00:16:13;7.90;;;6.60;;
21741;SDS011;11033;47.490;11.116;2023-07-31T00:18:38;8.77;;;6.77;;
21741;SDS011;11033;47.490;11.116;2023-07-31T00:21:03;7.47;;;6.77;;
21741;SDS011;11033;47.490;11.116;2023-07-31T00:23:29;7.07;;;6.43;;
21741;SDS011;11033;47.490;11.116;2023-07-31T00:25:54;10.20;;;6.80;;
21741;SDS011;11033;47.490;11.116;2023-07-31T00:28:19;7.50;;;6.77;;
21741;SDS011;11033;47.490;11.116;2023-07-31T00:30:44;9.97;;;7.00;;
21741;SDS011;11033;47.490;11.116;2023-07-31T00:33:09;8.03;;;7.33;;
21741;SDS011;11033;47.490;11.116;2023-07-31T00:35:34;12.87;;;7.23;;
21741;SDS011;11033;47.490;11.116;2023-07-31T00:37:59;8.27;;;6.60;;
21741;SDS011;11033;47.490;11.116;2023-07-31T00:40:25;8.63;;;6.90;;
21741;SDS011;11033;47.490;11.116;2023-07-31T00:42:50;7.07;;;6.37;;
21741;SDS011;11033;47.490;11.116;2023-07-31T00:45:15;10.13;;;6.05;;
21741;SDS011;11033;47.490;11.116;2023-07-31T00:47:40;6.73;;;6.23;;
21741;SDS011;11033;47.490;11.116;2023-07-31T00:50:06;7.00;;;6.30;;
21741;SDS011;11033;47.490;11.116;2023-07-31T00:52:32;6.63;;;6.03;;
21741;SDS011;11033;47.490;11.116;2023-07-31T00:54:57;8.03;;;6.60;;
21741;SDS011;11033;47.490;11.116;2023-07-31T00:57:22;7.37;;;6.40;;
21741;SDS011;11033;47.490;11.116;2023-07-31T00:59:47;7.43;;;6.73;;
21741;SDS011;11033;47.490;11.116;2023-07-31T01:02:12;8.63;;;6.93;;
21741;SDS011;11033;47.490;11.116;2023-07-31T01:04:38;8.93;;;6.47;;
21741;SDS011;11033;47.490;11.116;2023-07-31T01:07:14;9.90;;;7.17;;
21741;SDS011;11033;47.490;11.116;2023-07-31T01:09:52;7.47;;;6.20;;
21741;SDS011;11033;47.490;11.116;2023-07-31T01:12:20;7.55;;;6.85;;
21741;SDS011;11033;47.490;11.116;2023-07-31T01:15:05;8.20;;;6.57;;
21741;SDS011;11033;47.490;11.116;2023-07-31T01:17:30;8.65;;;6.03;;
21741;SDS011;11033;47.490;11.116;2023-07-31T01:19:56;9.53;;;6.83;;
21741;SDS011;11033;47.490;11.116;2023-07-31T01:24:55;7.63;;;6.87;;
21741;SDS011;11033;47.490;11.116;2023-07-31T01:27:23;7.90;;;7.10;;
21741;SDS011;11033;47.490;11.116;2023-07-31T01:29:50;7.30;;;6.60;;
21741;SDS011;11033;47.490;11.116;2023-07-31T01:32:18;8.38;;;7.25;;
21741;SDS011;11033;47.490;11.116;2023-07-31T01:34:44;6.88;;;6.28;;
21741;SDS011;11033;47.490;11.116;2023-07-31T01:37:10;6.82;;;6.22;;
21741;SDS011;11033;47.490;11.116;2023-07-31T01:39:35;7.07;;;6.33;;
21741;SDS011;11033;47.490;11.116;2023-07-31T01:42:00;7.00;;;6.33;;
21741;SDS011;11033;47.490;11.116;2023-07-31T01:44:26;7.33;;;6.60;;
21741;SDS011;11033;47.490;11.116;2023-07-31T01:46:51;7.40;;;6.60;;
21741;SDS011;11033;47.490;11.116;2023-07-31T01:49:16;6.57;;;5.80;;
21741;SDS011;11033;47.490;11.116;2023-07-31T01:51:41;7.13;;;6.37;;
21741;SDS011;11033;47.490;11.116;2023-07-31T01:54:07;7.77;;;6.47;;
21741;SDS011;11033;47.490;11.116;2023-07-31T01:56:32;7.57;;;6.30;;
21741;SDS011;11033;47.490;11.116;2023-07-31T01:58:57;11.97;;;6.43;;
21741;SDS011;11033;47.490;11.116;2023-07-31T02:01:22;8.40;;;7.03;;
21741;SDS011;11033;47.490;11.116;2023-07-31T02:03:48;8.20;;;6.28;;
21741;SDS011;11033;47.490;11.116;2023-07-31T02:06:13;8.43;;;6.03;;
21741;SDS011;11033;47.490;11.116;2023-07-31T02:08:38;10.97;;;6.90;;
21741;SDS011;11033;47.490;11.116;2023-07-31T02:11:03;8.93;;;6.90;;
21741;SDS011;11033;47.490;11.116;2023-07-31T02:13:29;8.33;;;6.53;;
21741;SDS011;11033;47.490;11.116;2023-07-31T02:15:54;8.77;;;6.40;;
21741;SDS011;11033;47.490;11.116;2023-07-31T02:18:19;6.80;;;6.10;;
21741;SDS011;11033;47.490;11.116;2023-07-31T02:20:48;8.10;;;6.83;;
21741;SDS011;11033;47.490;11.116;2023-07-31T02:23:14;10.63;;;6.78;;
21741;SDS011;11033;47.490;11.116;2023-07-31T02:25:39;10.07;;;7.20;;
21741;SDS011;11033;47.490;11.116;2023-07-31T02:28:04;9.03;;;7.20;;
21741;SDS011;11033;47.490;11.116;2023-07-31T02:30:29;9.20;;;6.93;;
21741;SDS011;11033;47.490;11.116;2023-07-31T02:32:54;8.37;;;6.70;;
21741;SDS011;11033;47.490;11.116;2023-07-31T02:35:19;10.00;;;6.40;;
21741;SDS011;11033;47.490;11.116;2023-07-31T02:37:45;7.37;;;6.77;;
21741;SDS011;11033;47.490;11.116;2023-07-31T02:40:10;9.57;;;6.83;;
21741;SDS011;11033;47.490;11.116;2023-07-31T02:42:35;7.28;;;6.30;;
21741;SDS011;11033;47.490;11.116;2023-07-31T02:45:00;8.27;;;6.63;;
21741;SDS011;11033;47.490;11.116;2023-07-31T02:47:25;8.00;;;6.65;;
21741;SDS011;11033;47.490;11.116;2023-07-31T02:49:51;6.60;;;5.90;;
21741;SDS011;11033;47.490;11.116;2023-07-31T02:52:16;8.00;;;7.20;;
21741;SDS011;11033;47.490;11.116;2023-07-31T02:54:41;6.43;;;5.90;;
21741;SDS011;11033;47.490;11.116;2023-07-31T02:57:06;6.77;;;6.17;;
21741;SDS011;11033;47.490;11.116;2023-07-31T02:59:31;7.37;;;6.30;;
21741;SDS011;11033;47.490;11.116;2023-07-31T03:01:56;6.53;;;5.93;;
21741;SDS011;11033;47.490;11.116;2023-07-31T03:04:22;5.50;;;5.00;;
21741;SDS011;11033;47.490;11.116;2023-07-31T03:06:47;6.57;;;5.87;;
21741;SDS011;11033;47.490;11.116;2023-07-31T03:09:12;12.17;;;6.20;;
21741;SDS011;11033;47.490;11.116;2023-07-31T03:11:37;6.40;;;5.80;;
21741;SDS011;11033;47.490;11.116;2023-07-31T03:14:02;6.77;;;6.07;;
21741;SDS011;11033;47.490;11.116;2023-07-31T03:16:27;8.60;;;6.23;;
21741;SDS011;11033;47.490;11.116;2023-07-31T03:18:53;6.27;;;5.73;;
21741;SDS011;11033;47.490;11.116;2023-07-31T03:21:19;11.43;;;6.28;;
21741;SDS011;11033;47.490;11.116;2023-07-31T03:23:44;10.45;;;6.57;;
21741;SDS011;11033;47.490;11.116;2023-07-31T03:26:09;6.30;;;5.70;;
21741;SDS011;11033;47.490;11.116;2023-07-31T03:28:34;9.27;;;6.13;;
21741;SDS011;11033;47.490;11.116;2023-07-31T03:31:00;7.07;;;6.37;;
21741;SDS011;11033;47.490;11.116;2023-07-31T03:33:25;9.60;;;6.28;;
21741;SDS011;11033;47.490;11.116;2023-07-31T03:35:50;6.63;;;6.03;;
21741;SDS011;11033;47.490;11.116;2023-07-31T03:38:16;6.20;;;5.63;;
21741;SDS011;11033;47.490;11.116;2023-07-31T03:40:41;7.07;;;6.33;;
21741;SDS011;11033;47.490;11.116;2023-07-31T03:43:06;6.20;;;5.60;;
21741;SDS011;11033;47.490;11.116;2023-07-31T03:45:31;7.87;;;6.27;;
21741;SDS011;11033;47.490;11.116;2023-07-31T03:47:56;6.67;;;6.10;;
21741;SDS011;11033;47.490;11.116;2023-07-31T03:50:21;8.77;;;5.93;;
21741;SDS011;11033;47.490;11.116;2023-07-31T03:52:47;7.97;;;5.90;;
21741;SDS011;11033;47.490;11.116;2023-07-31T03:55:12;11.57;;;7.00;;
21741;SDS011;11033;47.490;11.116;2023-07-31T03:57:37;6.33;;;5.83;;
21741;SDS011;11033;47.490;11.116;2023-07-31T04:00:02;5.83;;;5.33;;
21741;SDS011;11033;47.490;11.116;2023-07-31T04:02:28;8.77;;;5.88;;
21741;SDS011;11033;47.490;11.116;2023-07-31T04:04:53;8.82;;;5.82;;
21741;SDS011;11033;47.490;11.116;2023-07-31T04:07:19;7.77;;;5.60;;
21741;SDS011;11033;47.490;11.116;2023-07-31T04:09:44;6.20;;;5.70;;
21741;SDS011;11033;47.490;11.116;2023-07-31T04:12:09;7.90;;;6.25;;
21741;SDS011;11033;47.490;11.116;2023-07-31T04:14:34;8.00;;;5.93;;
21741;SDS011;11033;47.490;11.116;2023-07-31T04:16:59;7.00;;;6.30;;
21741;SDS011;11033;47.490;11.116;2023-07-31T04:19:25;6.50;;;5.90;;
21741;SDS011;11033;47.490;11.116;2023-07-31T04:21:50;6.30;;;5.67;;
21741;SDS011;11033;47.490;11.116;2023-07-31T04:24:15;8.70;;;5.83;;
21741;SDS011;11033;47.490;11.116;2023-07-31T04:26:40;6.50;;;5.67;;
21741;SDS011;11033;47.490;11.116;2023-07-31T04:29:05;7.83;;;5.93;;
21741;SDS011;11033;47.490;11.116;2023-07-31T04:31:30;10.27;;;6.03;;
21741;SDS011;11033;47.490;11.116;2023-07-31T04:33:56;6.10;;;5.60;;
21741;SDS011;11033;47.490;11.116;2023-07-31T04:36:21;6.80;;;6.10;;
21741;SDS011;11033;47.490;11.116;2023-07-31T04:38:46;7.27;;;6.53;;
21741;SDS011;11033;47.490;11.116;2023-07-31T04:41:11;6.33;;;5.83;;
21741;SDS011;11033;47.490;11.116;2023-07-31T04:43:36;6.80;;;5.47;;
21741;SDS011;11033;47.490;11.116;2023-07-31T04:46:04;7.47;;;6.20;;
21741;SDS011;11033;47.490;11.116;2023-07-31T04:48:29;6.68;;;5.97;;
21741;SDS011;11033;47.490;11.116;2023-07-31T04:50:54;7.53;;;5.60;;
21741;SDS011;11033;47.490;11.116;2023-07-31T04:53:19;12.53;;;6.40;;
21741;SDS011;11033;47.490;11.116;2023-07-31T04:55:44;9.00;;;6.53;;
21741;SDS011;11033;47.490;11.116;2023-07-31T04:58:10;7.97;;;6.33;;
21741;SDS011;11033;47.490;11.116;2023-07-31T05:00:35;7.93;;;6.30;;
21741;SDS011;11033;47.490;11.116;2023-07-31T05:03:00;7.40;;;6.70;;
21741;SDS011;11033;47.490;11.116;2023-07-31T05:05:25;6.93;;;6.33;;
21741;SDS011;11033;47.490;11.116;2023-07-31T05:07:50;7.17;;;6.60;;
21741;SDS011;11033;47.490;11.116;2023-07-31T05:10:15;8.67;;;6.23;;
21741;SDS011;11033;47.490;11.116;2023-07-31T05:12:41;8.87;;;6.50;;
21741;SDS011;11033;47.490;11.116;2023-07-31T05:15:06;7.43;;;6.57;;
21741;SDS011;11033;47.490;11.116;2023-07-31T05:17:31;9.23;;;6.80;;
21741;SDS011;11033;47.490;11.116;2023-07-31T05:19:57;8.38;;;6.88;;
21741;SDS011;11033;47.490;11.116;2023-07-31T05:22:22;7.85;;;7.00;;
21741;SDS011;11033;47.490;11.116;2023-07-31T05:24:47;7.13;;;6.30;;
21741;SDS011;11033;47.490;11.116;2023-07-31T05:27:12;7.20;;;6.57;;
21741;SDS011;11033;47.490;11.116;2023-07-31T05:29:40;7.07;;;6.47;;
21741;SDS011;11033;47.490;11.116;2023-07-31T05:32:05;7.03;;;6.32;;
21741;SDS011;11033;47.490;11.116;2023-07-31T05:34:30;8.27;;;7.32;;
21741;SDS011;11033;47.490;11.116;2023-07-31T05:36:56;7.53;;;6.43;;
21741;SDS011;11033;47.490;11.116;2023-07-31T05:39:21;7.23;;;6.57;;
21741;SDS011;11033;47.490;11.116;2023-07-31T05:41:47;6.57;;;6.07;;
21741;SDS011;11033;47.490;11.116;2023-07-31T05:44:12;7.63;;;6.20;;
21741;SDS011;11033;47.490;11.116;2023-07-31T05:46:37;6.70;;;6.07;;
21741;SDS011;11033;47.490;11.116;2023-07-31T05:49:02;8.07;;;6.90;;
21741;SDS011;11033;47.490;11.116;2023-07-31T05:51:27;8.50;;;7.13;;
21741;SDS011;11033;47.490;11.116;2023-07-31T05:53:53;7.63;;;6.43;;
21741;SDS011;11033;47.490;11.116;2023-07-31T05:56:18;6.90;;;6.28;;
21741;SDS011;11033;47.490;11.116;2023-07-31T05:58:43;9.03;;;6.83;;
21741;SDS011;11033;47.490;11.116;2023-07-31T06:01:08;7.27;;;6.47;;
21741;SDS011;11033;47.490;11.116;2023-07-31T06:03:33;6.93;;;5.83;;
21741;SDS011;11033;47.490;11.116;2023-07-31T06:05:59;8.38;;;6.20;;
21741;SDS011;11033;47.490;11.116;2023-07-31T06:08:24;7.43;;;6.53;;
21741;SDS011;11033;47.490;11.116;2023-07-31T06:10:49;6.40;;;5.90;;
21741;SDS011;11033;47.490;11.116;2023-07-31T06:13:14;6.83;;;6.23;;
21741;SDS011;11033;47.490;11.116;2023-07-31T06:15:39;9.17;;;6.47;;
21741;SDS011;11033;47.490;11.116;2023-07-31T06:18:04;11.80;;;6.87;;
21741;SDS011;11033;47.490;11.116;2023-07-31T06:20:32;9.20;;;6.72;;
21741;SDS011;11033;47.490;11.116;2023-07-31T06:22:58;7.97;;;5.90;;
21741;SDS011;11033;47.490;11.116;2023-07-31T06:25:23;6.55;;;5.82;;
21741;SDS011;11033;47.490;11.116;2023-07-31T06:27:48;6.67;;;6.03;;
21741;SDS011;11033;47.490;11.116;2023-07-31T06:30:13;6.80;;;6.20;;
21741;SDS011;11033;47.490;11.116;2023-07-31T06:32:38;9.77;;;6.67;;
21741;SDS011;11033;47.490;11.116;2023-07-31T06:35:05;7.95;;;6.55;;
21741;SDS011;11033;47.490;11.116;2023-07-31T06:37:30;8.35;;;6.65;;
21741;SDS011;11033;47.490;11.116;2023-07-31T06:39:55;7.30;;;6.32;;
21741;SDS011;11033;47.490;11.116;2023-07-31T06:42:21;7.20;;;6.70;;
21741;SDS011;11033;47.490;11.116;2023-07-31T06:44:46;7.05;;;6.55;;
21741;SDS011;11033;47.490;11.116;2023-07-31T06:47:11;8.13;;;7.43;;
21741;SDS011;11033;47.490;11.116;2023-07-31T06:49:36;8.03;;;7.43;;
21741;SDS011;11033;47.490;11.116;2023-07-31T06:52:01;7.70;;;7.07;;
21741;SDS011;11033;47.490;11.116;2023-07-31T06:54:27;8.03;;;7.33;;
21741;SDS011;11033;47.490;11.116;2023-07-31T06:56:52;8.40;;;7.60;;
21741;SDS011;11033;47.490;11.116;2023-07-31T06:59:17;8.70;;;8.00;;
21741;SDS011;11033;47.490;11.116;2023-07-31T07:01:42;9.57;;;8.87;;
21741;SDS011;11033;47.490;11.116;2023-07-31T07:04:07;9.03;;;8.13;;
21741;SDS011;11033;47.490;11.116;2023-07-31T07:06:33;8.93;;;8.33;;
21741;SDS011;11033;47.490;11.116;2023-07-31T07:08:58;9.60;;;8.70;;
21741;SDS011;11033;47.490;11.116;2023-07-31T07:11:23;10.20;;;9.20;;
21741;SDS011;11033;47.490;11.116;2023-07-31T07:13:48;10.13;;;8.90;;
21741;SDS011;11033;47.490;11.116;2023-07-31T07:16:14;16.90;;;9.35;;
21741;SDS011;11033;47.490;11.116;2023-07-31T07:18:39;10.17;;;9.30;;
21741;SDS011;11033;47.490;11.116;2023-07-31T07:21:04;9.63;;;8.93;;
21741;SDS011;11033;47.490;11.116;2023-07-31T07:23:29;10.03;;;9.33;;
21741;SDS011;11033;47.490;11.116;2023-07-31T07:25:55;10.33;;;9.53;;
21741;SDS011;11033;47.490;11.116;2023-07-31T07:28:20;10.37;;;9.57;;
21741;SDS011;11033;47.490;11.116;2023-07-31T07:30:45;10.97;;;10.27;;
21741;SDS011;11033;47.490;11.116;2023-07-31T07:33:15;10.70;;;10.00;;
21741;SDS011;11033;47.490;11.116;2023-07-31T07:35:40;9.80;;;9.13;;
21741;SDS011;11033;47.490;11.116;2023-07-31T07:38:05;10.50;;;9.70;;
21741;SDS011;11033;47.490;11.116;2023-07-31T07:40:30;10.27;;;9.57;;
21741;SDS011;11033;47.490;11.116;2023-07-31T07:42:56;10.48;;;9.65;;
21741;SDS011;11033;47.490;11.116;2023-07-31T07:45:21;10.10;;;9.47;;
21741;SDS011;11033;47.490;11.116;2023-07-31T07:47:46;11.33;;;10.53;;
21741;SDS011;11033;47.490;11.116;2023-07-31T07:50:11;10.47;;;9.63;;
21741;SDS011;11033;47.490;11.116;2023-07-31T07:52:36;11.38;;;10.00;;
21741;SDS011;11033;47.490;11.116;2023-07-31T07:55:02;10.60;;;9.90;;
21741;SDS011;11033;47.490;11.116;2023-07-31T07:57:28;10.27;;;9.68;;
21741;SDS011;11033;47.490;11.116;2023-07-31T07:59:53;10.13;;;9.23;;
21741;SDS011;11033;47.490;11.116;2023-07-31T08:02:18;9.40;;;8.80;;
21741;SDS011;11033;47.490;11.116;2023-07-31T08:04:44;9.73;;;9.03;;
21741;SDS011;11033;47.490;11.116;2023-07-31T08:07:12;10.85;;;10.05;;
21741;SDS011;11033;47.490;11.116;2023-07-31T08:09:37;10.75;;;9.98;;
21741;SDS011;11033;47.490;11.116;2023-07-31T08:12:03;10.67;;;9.80;;
21741;SDS011;11033;47.490;11.116;2023-07-31T08:14:29;10.00;;;9.18;;
21741;SDS011;11033;47.490;11.116;2023-07-31T08:16:54;10.02;;;9.20;;
21741;SDS011;11033;47.490;11.116;2023-07-31T08:19:19;10.10;;;9.50;;
21741;SDS011;11033;47.490;11.116;2023-07-31T08:21:44;10.77;;;10.03;;
21741;SDS011;11033;47.490;11.116;2023-07-31T08:24:09;10.20;;;9.30;;
21741;SDS011;11033;47.490;11.116;2023-07-31T08:26:35;10.40;;;9.70;;
21741;SDS011;11033;47.490;11.116;2023-07-31T08:29:00;10.73;;;9.90;;
21741;SDS011;11033;47.490;11.116;2023-07-31T08:31:25;10.17;;;9.30;;
21741;SDS011;11033;47.490;11.116;2023-07-31T08:33:51;10.63;;;9.75;;
21741;SDS011;11033;47.490;11.116;2023-07-31T08:36:17;9.60;;;8.87;;
21741;SDS011;11033;47.490;11.116;2023-07-31T08:38:42;9.50;;;8.90;;
21741;SDS011;11033;47.490;11.116;2023-07-31T08:41:07;10.30;;;9.60;;
21741;SDS011;11033;47.490;11.116;2023-07-31T08:43:32;9.10;;;8.50;;
21741;SDS011;11033;47.490;11.116;2023-07-31T08:45:57;9.83;;;9.03;;
21741;SDS011;11033;47.490;11.116;2023-07-31T08:48:23;9.75;;;9.13;;
21741;SDS011;11033;47.490;11.116;2023-07-31T08:50:49;9.57;;;8.90;;
21741;SDS011;11033;47.490;11.116;2023-07-31T08:53:14;10.80;;;10.13;;
21741;SDS011;11033;47.490;11.116;2023-07-31T08:55:39;9.95;;;9.23;;
21741;SDS011;11033;47.490;11.116;2023-07-31T08:58:05;9.80;;;9.10;;
21741;SDS011;11033;47.490;11.116;2023-07-31T09:00:31;10.27;;;9.57;;
21741;SDS011;11033;47.490;11.116;2023-07-31T09:05:22;9.37;;;8.63;;
21741;SDS011;11033;47.490;11.116;2023-07-31T09:07:47;9.65;;;8.93;;
21741;SDS011;11033;47.490;11.116;2023-07-31T09:10:14;9.45;;;8.80;;
21741;SDS011;11033;47.490;11.116;2023-07-31T09:12:39;9.93;;;9.33;;
21741;SDS011;11033;47.490;11.116;2023-07-31T09:15:05;9.43;;;8.82;;
21741;SDS011;11033;47.490;11.116;2023-07-31T09:17:30;11.05;;;10.35;;
21741;SDS011;11033;47.490;11.116;2023-07-31T09:19:56;10.40;;;9.80;;
21741;SDS011;11033;47.490;11.116;2023-07-31T09:22:31;10.57;;;9.77;;
21741;SDS011;11033;47.490;11.116;2023-07-31T09:24:56;10.60;;;9.73;;
21741;SDS011;11033;47.490;11.116;2023-07-31T09:27:28;10.73;;;9.50;;
21741;SDS011;11033;47.490;11.116;2023-07-31T09:30:10;10.05;;;9.25;;
21741;SDS011;11033;47.490;11.116;2023-07-31T09:32:35;9.82;;;9.23;;
21741;SDS011;11033;47.490;11.116;2023-07-31T09:35:00;9.27;;;8.63;;
21741;SDS011;11033;47.490;11.116;2023-07-31T09:37:26;10.67;;;9.87;;
21741;SDS011;11033;47.490;11.116;2023-07-31T09:39:54;10.02;;;9.40;;
21741;SDS011;11033;47.490;11.116;2023-07-31T09:42:24;10.75;;;9.88;;
21741;SDS011;11033;47.490;11.116;2023-07-31T09:44:49;9.93;;;9.32;;
21741;SDS011;11033;47.490;11.116;2023-07-31T09:47:21;10.00;;;9.30;;
21741;SDS011;11033;47.490;11.116;2023-07-31T09:49:48;9.85;;;9.13;;
21741;SDS011;11033;47.490;11.116;2023-07-31T09:52:13;10.97;;;10.17;;
21741;SDS011;11033;47.490;11.116;2023-07-31T09:54:38;10.40;;;9.80;;
21741;SDS011;11033;47.490;11.116;2023-07-31T09:57:03;10.73;;;10.13;;
21741;SDS011;11033;47.490;11.116;2023-07-31T09:59:29;9.95;;;9.35;;
21741;SDS011;11033;47.490;11.116;2023-07-31T10:01:54;11.13;;;10.40;;
21741;SDS011;11033;47.490;11.116;2023-07-31T10:04:21;10.90;;;10.10;;
21741;SDS011;11033;47.490;11.116;2023-07-31T10:06:50;10.65;;;9.95;;
21741;SDS011;11033;47.490;11.116;2023-07-31T10:09:18;11.30;;;10.50;;
21741;SDS011;11033;47.490;11.116;2023-07-31T10:11:51;10.10;;;9.50;;
21741;SDS011;11033;47.490;11.116;2023-07-31T10:14:20;10.15;;;9.55;;
21741;SDS011;11033;47.490;11.116;2023-07-31T10:16:46;10.55;;;9.85;;
21741;SDS011;11033;47.490;11.116;2023-07-31T10:19:12;10.65;;;9.95;;
21741;SDS011;11033;47.490;11.116;2023-07-31T10:21:37;10.67;;;9.97;;
21741;SDS011;11033;47.490;11.116;2023-07-31T10:24:03;10.57;;;9.77;;
21741;SDS011;11033;47.490;11.116;2023-07-31T10:26:28;10.80;;;10.00;;
21741;SDS011;11033;47.490;11.116;2023-07-31T10:28:54;11.10;;;10.35;;
21741;SDS011;11033;47.490;11.116;2023-07-31T10:31:19;11.40;;;10.50;;
21741;SDS011;11033;47.490;11.116;2023-07-31T10:33:44;11.27;;;10.30;;
21741;SDS011;11033;47.490;11.116;2023-07-31T10:36:13;11.65;;;10.60;;
21741;SDS011;11033;47.490;11.116;2023-07-31T10:38:40;10.45;;;9.85;;
21741;SDS011;11033;47.490;11.116;2023-07-31T10:41:09;10.68;;;10.00;;
21741;SDS011;11033;47.490;11.116;2023-07-31T10:43:34;11.57;;;10.77;;
21741;SDS011;11033;47.490;11.116;2023-07-31T10:46:01;10.85;;;10.20;;
21741;SDS011;11033;47.490;11.116;2023-07-31T10:48:32;10.63;;;9.93;;
21741;SDS011;11033;47.490;11.116;2023-07-31T10:50:58;11.20;;;10.60;;
21741;SDS011;11033;47.490;11.116;2023-07-31T10:53:24;10.73;;;10.02;;
21741;SDS011;11033;47.490;11.116;2023-07-31T10:55:50;11.20;;;10.40;;
21741;SDS011;11033;47.490;11.116;2023-07-31T10:58:18;10.27;;;9.77;;
21741;SDS011;11033;47.490;11.116;2023-07-31T11:00:44;11.32;;;10.52;;
21741;SDS011;11033;47.490;11.116;2023-07-31T11:03:13;10.07;;;9.48;;
21741;SDS011;11033;47.490;11.116;2023-07-31T11:08:12;10.88;;;10.27;;
21741;SDS011;11033;47.490;11.116;2023-07-31T11:10:37;11.10;;;10.45;;
21741;SDS011;11033;47.490;11.116;2023-07-31T11:13:04;10.63;;;10.10;;
21741;SDS011;11033;47.490;11.116;2023-07-31T11:15:29;11.95;;;11.15;;
21741;SDS011;11033;47.490;11.116;2023-07-31T11:17:55;11.40;;;10.70;;
21741;SDS011;11033;47.490;11.116;2023-07-31T11:20:20;11.75;;;10.82;;
21741;SDS011;11033;47.490;11.116;2023-07-31T11:22:46;11.80;;;10.90;;
21741;SDS011;11033;47.490;11.116;2023-07-31T11:25:12;11.40;;;10.60;;
21741;SDS011;11033;47.490;11.116;2023-07-31T11:27:39;11.10;;;10.40;;
21741;SDS011;11033;47.490;11.116;2023-07-31T11:30:05;11.07;;;10.25;;
21741;SDS011;11033;47.490;11.116;2023-07-31T11:32:32;10.38;;;9.57;;
21741;SDS011;11033;47.490;11.116;2023-07-31T11:34:57;10.70;;;9.97;;
21741;SDS011;11033;47.490;11.116;2023-07-31T11:37:22;10.17;;;9.57;;
21741;SDS011;11033;47.490;11.116;2023-07-31T11:40:00;11.20;;;10.13;;
21741;SDS011;11033;47.490;11.116;2023-07-31T11:42:25;10.45;;;9.63;;
21741;SDS011;11033;47.490;11.116;2023-07-31T11:44:51;10.73;;;9.83;;
21741;SDS011;11033;47.490;11.116;2023-07-31T11:47:16;10.40;;;9.80;;
21741;SDS011;11033;47.490;11.116;2023-07-31T11:49:41;11.57;;;10.55;;
21741;SDS011;11033;47.490;11.116;2023-07-31T11:52:07;11.27;;;10.57;;
21741;SDS011;11033;47.490;11.116;2023-07-31T11:54:32;11.47;;;10.50;;
21741;SDS011;11033;47.490;11.116;2023-07-31T11:56:57;10.20;;;9.60;;
21741;SDS011;11033;47.490;11.116;2023-07-31T11:59:25;10.10;;;9.52;;
21741;SDS011;11033;47.490;11.116;2023-07-31T12:01:51;10.83;;;10.07;;
21741;SDS011;11033;47.490;11.116;2023-07-31T12:04:18;10.63;;;10.02;;
21741;SDS011;11033;47.490;11.116;2023-07-31T12:06:44;10.40;;;9.77;;
21741;SDS011;11033;47.490;11.116;2023-07-31T12:09:09;10.43;;;9.60;;
21741;SDS011;11033;47.490;11.116;2023-07-31T12:11:44;11.03;;;9.97;;
21741;SDS011;11033;47.490;11.116;2023-07-31T12:14:19;10.55;;;9.77;;
21741;SDS011;11033;47.490;11.116;2023-07-31T12:16:44;10.70;;;9.90;;
21741;SDS011;11033;47.490;11.116;2023-07-31T12:19:09;10.53;;;9.83;;
21741;SDS011;11033;47.490;11.116;2023-07-31T12:21:34;11.53;;;10.83;;
21741;SDS011;11033;47.490;11.116;2023-07-31T12:24:00;10.30;;;9.70;;
21741;SDS011;11033;47.490;11.116;2023-07-31T12:26:25;10.20;;;9.70;;
21741;SDS011;11033;47.490;11.116;2023-07-31T12:28:58;10.82;;;10.13;;
21741;SDS011;11033;47.490;11.116;2023-07-31T12:31:24;10.13;;;9.53;;
21741;SDS011;11033;47.490;11.116;2023-07-31T12:33:52;10.55;;;9.85;;
21741;SDS011;11033;47.490;11.116;2023-07-31T12:36:18;11.05;;;10.35;;
21741;SDS011;11033;47.490;11.116;2023-07-31T12:38:44;11.43;;;10.70;;
21741;SDS011;11033;47.490;11.116;2023-07-31T12:41:10;10.60;;;10.00;;
21741;SDS011;11033;47.490;11.116;2023-07-31T12:43:36;11.00;;;10.20;;
21741;SDS011;11033;47.490;11.116;2023-07-31T12:46:01;10.88;;;10.27;;
21741;SDS011;11033;47.490;11.116;2023-07-31T12:48:27;11.23;;;10.50;;
21741;SDS011;11033;47.490;11.116;2023-07-31T12:50:52;10.67;;;10.07;;
21741;SDS011;11033;47.490;11.116;2023-07-31T12:53:17;11.07;;;10.47;;
21741;SDS011;11033;47.490;11.116;2023-07-31T12:55:42;11.45;;;10.63;;
21741;SDS011;11033;47.490;11.116;2023-07-31T12:58:07;10.57;;;9.87;;
21741;SDS011;11033;47.490;11.116;2023-07-31T13:00:33;11.40;;;10.63;;
21741;SDS011;11033;47.490;11.116;2023-07-31T13:02:58;10.27;;;9.67;;
21741;SDS011;11033;47.490;11.116;2023-07-31T13:05:23;10.80;;;10.05;;
21741;SDS011;11033;47.490;11.116;2023-07-31T13:07:49;11.30;;;10.60;;
21741;SDS011;11033;47.490;11.116;2023-07-31T13:10:14;11.57;;;10.77;;
21741;SDS011;11033;47.490;11.116;2023-07-31T13:12:39;11.67;;;10.97;;
21741;SDS011;11033;47.490;11.116;2023-07-31T13:15:05;11.15;;;10.45;;
21741;SDS011;11033;47.490;11.116;2023-07-31T13:17:30;11.27;;;10.57;;
21741;SDS011;11033;47.490;11.116;2023-07-31T13:19:55;11.30;;;10.70;;
21741;SDS011;11033;47.490;11.116;2023-07-31T13:22:21;11.87;;;11.13;;
21741;SDS011;11033;47.490;11.116;2023-07-31T13:24:46;10.30;;;9.60;;
21741;SDS011;11033;47.490;11.116;2023-07-31T13:27:11;11.77;;;10.87;;
21741;SDS011;11033;47.490;11.116;2023-07-31T13:29:36;10.73;;;10.13;;
21741;SDS011;11033;47.490;11.116;2023-07-31T13:32:02;10.40;;;9.90;;
21741;SDS011;11033;47.490;11.116;2023-07-31T13:34:27;10.23;;;9.50;;
21741;SDS011;11033;47.490;11.116;2023-07-31T13:36:53;10.47;;;9.87;;
21741;SDS011;11033;47.490;11.116;2023-07-31T13:39:19;11.27;;;10.57;;
21741;SDS011;11033;47.490;11.116;2023-07-31T13:41:44;10.10;;;9.53;;
21741;SDS011;11033;47.490;11.116;2023-07-31T13:44:09;11.03;;;10.33;;
21741;SDS011;11033;47.490;11.116;2023-07-31T13:46:34;11.53;;;10.73;;
21741;SDS011;11033;47.490;11.116;2023-07-31T13:48:59;10.03;;;9.33;;
21741;SDS011;11033;47.490;11.116;2023-07-31T13:51:26;11.10;;;10.35;;
21741;SDS011;11033;47.490;11.116;2023-07-31T13:53:52;10.80;;;10.05;;
21741;SDS011;11033;47.490;11.116;2023-07-31T13:56:17;11.57;;;10.67;;
21741;SDS011;11033;47.490;11.116;2023-07-31T13:58:43;10.27;;;9.40;;
21741;SDS011;11033;47.490;11.116;2023-07-31T14:01:08;12.03;;;11.13;;
21741;SDS011;11033;47.490;11.116;2023-07-31T14:03:34;12.52;;;11.82;;
21741;SDS011;11033;47.490;11.116;2023-07-31T14:05:59;10.48;;;9.98;;
21741;SDS011;11033;47.490;11.116;2023-07-31T14:08:24;10.90;;;10.20;;
21741;SDS011;11033;47.490;11.116;2023-07-31T14:10:49;10.43;;;9.80;;
21741;SDS011;11033;47.490;11.116;2023-07-31T14:13:14;10.47;;;9.77;;
21741;SDS011;11033;47.490;11.116;2023-07-31T14:15:41;11.67;;;10.77;;
21741;SDS011;11033;47.490;11.116;2023-07-31T14:18:06;10.60;;;9.80;;
21741;SDS011;11033;47.490;11.116;2023-07-31T14:20:31;10.70;;;9.90;;
21741;SDS011;11033;47.490;11.116;2023-07-31T14:22:57;9.10;;;8.60;;
21741;SDS011;11033;47.490;11.116;2023-07-31T14:25:22;9.30;;;8.57;;